Time;durP1;ratioP1;P1;durP2;ratioP2;P2;SDS_P1;SDS_P2;PMS_P1;PMS_P2;Temp;Humidity;BMP_temperature;BMP_pressure;BME280_temperature;BME280_humidity;BME280_pressure;Samples;Min_cycle;Max_cycle;Signal;HPM_P1;HPM_P2
2021/12/19 00:10:48;;;;;;;5.40;1.85;;;7.60;99.90;;;;;;5002454;28;20084;-68
2021/12/19 00:13:13;;;;;;;;;;;7.60;99.90;;;;;;5001358;28;20609;-68
2021/12/19 00:15:39;;;;;;;3.95;2.38;;;7.60;99.90;;;;;;5001503;28;20012;-68
2021/12/19 00:18:04;;;;;;;;;;;7.60;99.90;;;;;;5002722;28;20539;-68
2021/12/19 00:20:30;;;;;;;4.13;2.83;;;7.60;99.90;;;;;;5001559;28;20004;-68
2021/12/19 00:22:55;;;;;;;;;;;7.60;99.90;;;;;;5001632;28;20038;-68
2021/12/19 00:25:21;;;;;;;5.00;2.80;;;7.60;99.90;;;;;;5001448;28;19913;-68
2021/12/19 00:27:46;;;;;;;8.90;4.22;;;7.60;99.90;;;;;;5001659;28;20293;-68
2021/12/19 00:30:12;;;;;;;12.45;5.22;;;7.60;99.90;;;;;;5001504;28;20030;-68
2021/12/19 00:32:40;;;;;;;;;;;7.60;99.90;;;;;;5001938;28;20484;-68
2021/12/19 00:35:06;;;;;;;11.07;5.43;;;7.60;99.90;;;;;;5001709;28;20420;-68
2021/12/19 00:37:31;;;;;;;;;;;7.60;99.90;;;;;;5002111;28;20033;-68
2021/12/19 00:39:57;;;;;;;11.15;4.43;;;7.60;99.90;;;;;;5001818;28;19913;-68
2021/12/19 00:42:32;;;;;;;5.55;4.38;;;7.60;99.90;;;;;;5000413;28;20030;-67
2021/12/19 00:45:01;;;;;;;4.55;4.07;;;7.60;99.90;;;;;;5000969;28;20036;-67
2021/12/19 00:47:27;;;;;;;5.13;2.88;;;7.60;99.90;;;;;;4999841;28;20116;-67
2021/12/19 00:49:54;;;;;;;;;;;7.60;99.90;;;;;;5001813;28;20034;-67
2021/12/19 00:52:19;;;;;;;6.30;3.60;;;7.60;99.90;;;;;;5001066;28;19967;-68
2021/12/19 00:54:45;;;;;;;;;;;7.60;99.90;;;;;;5001837;28;20038;-68
2021/12/19 00:57:10;;;;;;;5.32;1.95;;;7.60;99.90;;;;;;5001359;28;19909;-68
2021/12/19 00:59:36;;;;;;;;;;;7.60;99.90;;;;;;5001439;28;20586;-68
2021/12/19 01:02:02;;;;;;;6.53;2.95;;;7.50;99.90;;;;;;5000320;28;20000;-68
2021/12/19 01:04:27;;;;;;;;;;;7.50;99.90;;;;;;5000020;28;20034;-68
2021/12/19 01:06:53;;;;;;;2.92;1.60;;;7.40;99.90;;;;;;4996815;28;19910;-68
2021/12/19 01:09:18;;;;;;;4.07;2.22;;;7.40;99.90;;;;;;4994878;28;20034;-67
2021/12/19 01:11:48;;;;;;;;;;;7.40;99.90;;;;;;4997785;28;20038;-67
2021/12/19 01:14:15;;;;;;;7.90;2.72;;;7.40;99.90;;;;;;4998736;28;19913;-67
2021/12/19 01:16:40;;;;;;;5.97;2.33;;;7.40;99.90;;;;;;4999987;28;20034;-67
2021/12/19 01:19:06;;;;;;;;;;;7.30;99.90;;;;;;5001422;28;20033;-67
2021/12/19 01:21:31;;;;;;;6.65;2.38;;;7.30;99.90;;;;;;4999524;28;20012;-67
2021/12/19 01:23:57;;;;;;;2.45;1.92;;;7.30;99.90;;;;;;4998651;28;20071;-67
2021/12/19 01:26:23;;;;;;;3.53;2.65;;;7.30;99.90;;;;;;5000880;28;20041;-67
2021/12/19 01:28:48;;;;;;;;;;;7.30;99.90;;;;;;4997932;28;20028;-68
2021/12/19 01:31:14;;;;;;;4.30;2.63;;;7.30;99.90;;;;;;4998753;28;20471;-69
2021/12/19 01:33:40;;;;;;;3.97;2.80;;;7.30;99.90;;;;;;4995595;28;20029;-69
2021/12/19 01:36:05;;;;;;;3.97;2.55;;;7.30;99.90;;;;;;4994111;28;20497;-69
2021/12/19 01:38:31;;;;;;;4.82;2.78;;;7.20;99.90;;;;;;4994476;28;20506;-69
2021/12/19 01:40:57;;;;;;;4.85;2.83;;;7.30;99.90;;;;;;4994671;28;20030;-68
2021/12/19 01:43:25;;;;;;;;;;;7.20;99.90;;;;;;4997044;28;20036;-68
2021/12/19 01:45:52;;;;;;;3.17;2.50;;;7.30;99.90;;;;;;4994644;28;19920;-68
2021/12/19 01:48:19;;;;;;;7.57;3.22;;;7.30;99.90;;;;;;4995487;28;20026;-68
2021/12/19 01:50:45;;;;;;;5.28;3.00;;;7.20;99.90;;;;;;4996170;28;20137;-68
2021/12/19 01:53:12;;;;;;;;;;;7.30;99.90;;;;;;4994537;28;20033;-68
2021/12/19 01:55:39;;;;;;;5.23;4.10;;;7.30;99.90;;;;;;5008560;28;19913;-68
2021/12/19 01:58:05;;;;;;;6.78;5.20;;;7.30;99.90;;;;;;4998579;28;20026;-68
2021/12/19 02:00:39;;;;;;;9.68;6.22;;;7.30;99.90;;;;;;4994705;28;20040;-68
2021/12/19 02:03:06;;;;;;;8.23;6.00;;;7.30;99.90;;;;;;4993849;28;20061;-68
2021/12/19 02:05:32;;;;;;;12.23;5.55;;;7.30;99.90;;;;;;4994482;28;20038;-68
2021/12/19 02:07:59;;;;;;;;;;;7.30;99.90;;;;;;4993926;28;20033;-68
2021/12/19 02:10:29;;;;;;;8.50;5.28;;;7.30;99.90;;;;;;4995670;28;19924;-68
2021/12/19 02:12:56;;;;;;;8.93;5.50;;;7.30;99.90;;;;;;4996291;28;20029;-68
2021/12/19 02:15:24;;;;;;;11.18;5.32;;;7.20;99.90;;;;;;4998391;28;20025;-68
2021/12/19 02:17:52;;;;;;;8.52;4.65;;;7.20;99.90;;;;;;4995223;28;20055;-68
2021/12/19 02:20:20;;;;;;;7.43;5.25;;;7.20;99.90;;;;;;4993592;28;20396;-68
2021/12/19 02:22:45;;;;;;;7.20;4.97;;;7.20;99.90;;;;;;4994711;28;20048;-68
2021/12/19 02:25:11;;;;;;;;;;;7.20;99.90;;;;;;4998477;28;20509;-68
2021/12/19 02:27:37;;;;;;;10.52;6.03;;;7.20;99.90;;;;;;4996668;28;19913;-69
2021/12/19 02:30:05;;;;;;;5.80;4.70;;;7.20;99.90;;;;;;4996123;28;20038;-69
2021/12/19 02:32:32;;;;;;;7.85;4.03;;;7.20;99.90;;;;;;4994811;28;20112;-69
2021/12/19 02:35:01;;;;;;;7.43;4.82;;;7.20;99.90;;;;;;4997348;28;20080;-69
2021/12/19 02:40:21;;;;;;;;;;;7.20;99.90;;;;;;4995086;28;20102;-69
2021/12/19 02:48:13;;;;;;;12.50;4.05;;;7.20;99.90;;;;;;4993162;28;20044;-69
2021/12/19 02:50:52;;;;;;;8.80;4.93;;;7.20;99.90;;;;;;4994810;28;20386;-68
2021/12/19 02:53:31;;;;;;;6.93;5.05;;;7.20;99.90;;;;;;4996169;28;20508;-68
2021/12/19 02:55:58;;;;;;;8.25;4.47;;;7.20;99.90;;;;;;4995898;28;20120;-69
2021/12/19 02:58:24;;;;;;;9.93;5.80;;;7.20;99.90;;;;;;4993800;28;20018;-69
2021/12/19 03:00:49;;;;;;;;;;;7.20;99.90;;;;;;4995960;28;20036;-69
2021/12/19 03:03:15;;;;;;;7.03;3.97;;;7.20;99.90;;;;;;4995271;28;20466;-68
2021/12/19 03:05:40;;;;;;;9.63;4.50;;;7.20;99.90;;;;;;4994269;28;20038;-66
2021/12/19 03:08:08;;;;;;;8.93;4.97;;;7.20;99.90;;;;;;4995039;28;20174;-66
2021/12/19 03:18:29;;;;;;;7.72;5.03;;;7.20;99.90;;;;;;4997572;28;20397;-69
2021/12/19 03:20:54;;;;;;;;;;;7.20;99.90;;;;;;4995675;28;20501;-69
2021/12/19 03:23:20;;;;;;;11.73;5.60;;;7.20;99.90;;;;;;4993049;28;19924;-68
2021/12/19 03:25:46;;;;;;;10.77;6.22;;;7.20;99.90;;;;;;4995325;28;20045;-68
2021/12/19 03:28:13;;;;;;;9.75;5.18;;;7.20;99.90;;;;;;4993838;28;20033;-69
2021/12/19 03:30:40;;;;;;;9.65;5.93;;;7.20;99.90;;;;;;4995546;28;20030;-69
2021/12/19 03:33:06;;;;;;;11.95;6.32;;;7.20;99.90;;;;;;4996252;28;20374;-68
2021/12/19 03:35:32;;;;;;;;;;;7.20;99.90;;;;;;4999647;28;20030;-68
2021/12/19 03:37:59;;;;;;;12.05;6.68;;;7.30;99.90;;;;;;4998969;28;19905;-68
2021/12/19 03:40:35;;;;;;;10.63;4.93;;;7.20;99.90;;;;;;4993477;28;20565;-68
2021/12/19 03:43:08;;;;;;;8.13;5.83;;;7.20;99.90;;;;;;4994051;28;20366;-68
2021/12/19 03:45:34;;;;;;;9.25;5.63;;;7.20;99.90;;;;;;4995690;28;21477;-68
2021/12/19 03:48:01;;;;;;;10.18;4.72;;;7.30;99.90;;;;;;4993138;28;20026;-68
2021/12/19 03:50:27;;;;;;;7.40;5.75;;;7.30;99.90;;;;;;4994911;28;20026;-67
2021/12/19 03:52:53;;;;;;;;;;;7.20;99.90;;;;;;4994299;28;20034;-68
2021/12/19 03:55:21;;;;;;;6.18;4.32;;;7.20;99.90;;;;;;4993199;28;19917;-68
2021/12/19 03:57:47;;;;;;;8.63;5.05;;;7.20;99.90;;;;;;5008733;28;20034;-68
2021/12/19 04:00:16;;;;;;;13.48;7.18;;;7.20;99.90;;;;;;4998624;28;20030;-68
2021/12/19 04:02:42;;;;;;;9.48;6.63;;;7.20;99.90;;;;;;5002555;28;20033;-68
2021/12/19 04:05:07;;;;;;;;;;;7.20;99.90;;;;;;5003111;28;20033;-68
2021/12/19 04:07:33;;;;;;;11.43;5.53;;;7.20;99.90;;;;;;5002040;28;20333;-68
2021/12/19 04:09:59;;;;;;;7.57;4.82;;;7.20;99.90;;;;;;5002588;28;20061;-68
2021/12/19 04:12:27;;;;;;;;;;;7.20;99.90;;;;;;5001814;28;20686;-68
2021/12/19 04:14:53;;;;;;;11.50;5.85;;;7.20;99.90;;;;;;5002335;28;19906;-68
2021/12/19 04:17:19;;;;;;;8.32;5.72;;;7.20;99.90;;;;;;5001082;28;20034;-68
2021/12/19 04:19:44;;;;;;;;;;;7.30;99.90;;;;;;5002770;28;20034;-68
2021/12/19 04:22:10;;;;;;;8.35;5.05;;;7.20;99.90;;;;;;5001417;28;19928;-68
2021/12/19 04:24:35;;;;;;;13.27;5.93;;;7.20;99.90;;;;;;5002228;28;20029;-68
2021/12/19 04:27:01;;;;;;;6.07;5.22;;;7.30;99.90;;;;;;5002192;28;20068;-68
2021/12/19 04:29:27;;;;;;;;;;;7.30;99.90;;;;;;5002726;28;20509;-69
2021/12/19 04:31:53;;;;;;;6.72;4.57;;;7.30;99.90;;;;;;5017478;28;19917;-69
2021/12/19 04:34:20;;;;;;;9.35;5.22;;;7.30;99.90;;;;;;5002633;28;20481;-69
2021/12/19 04:36:50;;;;;;;6.85;4.50;;;7.30;99.90;;;;;;5001174;28;20398;-69
2021/12/19 04:39:31;;;;;;;7.93;4.38;;;7.30;99.90;;;;;;5017407;28;20077;-69
2021/12/19 04:51:00;;;;;;;14.80;4.50;;;7.30;99.90;;;;;;5001380;28;19956;-69
2021/12/19 04:52:57;;;;;;;10.23;4.72;;;7.30;99.90;;;;;;5000498;28;20564;-70
2021/12/19 04:55:38;;;;;;;8.63;4.97;;;7.30;99.90;;;;;;5001201;28;20473;-69
2021/12/19 05:00:50;;;;;;;6.47;4.30;;;7.30;99.90;;;;;;5000972;28;20557;-69
2021/12/19 05:03:29;;;;;;;10.23;4.35;;;7.30;99.90;;;;;;5001294;28;20025;-69
2021/12/19 05:14:02;;;;;;;8.52;4.47;;;7.30;99.90;;;;;;5001662;28;20022;-68
2021/12/19 05:14:22;;;;;;;9.32;3.95;;;7.30;99.90;;;;;;5000963;28;20033;-70
2021/12/19 05:16:49;;;;;;;8.93;3.75;;;7.30;99.90;;;;;;5001004;28;20457;-68
2021/12/19 05:19:26;;;;;;;6.00;3.13;;;7.30;99.90;;;;;;5000352;28;20029;-68
2021/12/19 05:21:56;;;;;;;7.72;3.35;;;7.30;99.90;;;;;;5000279;28;20023;-68
2021/12/19 05:24:45;;;;;;;7.35;3.65;;;7.30;99.90;;;;;;5000672;28;20085;-68
2021/12/19 05:27:09;;;;;;;6.22;2.92;;;7.30;99.90;;;;;;5001478;28;20076;-69
2021/12/19 05:29:36;;;;;;;4.78;2.70;;;7.30;99.90;;;;;;5006430;28;20409;-69
2021/12/19 05:32:03;;;;;;;7.13;2.92;;;7.30;99.90;;;;;;5000962;28;20116;-69
2021/12/19 05:34:30;;;;;;;7.47;2.97;;;7.30;99.90;;;;;;5000393;28;20101;-69
2021/12/19 05:45:12;;;;;;;3.75;2.25;;;7.30;99.90;;;;;;5001590;28;20068;-69
2021/12/19 05:47:38;;;;;;;4.57;1.55;;;7.30;99.90;;;;;;5000754;28;20022;-69
2021/12/19 05:50:04;;;;;;;;;;;7.30;99.90;;;;;;5001345;28;20066;-69
2021/12/19 05:52:30;;;;;;;4.63;1.73;;;7.30;99.90;;;;;;4999141;28;19964;-69
2021/12/19 05:54:56;;;;;;;;;;;7.30;99.90;;;;;;5000772;28;20472;-69
2021/12/19 05:57:21;;;;;;;3.13;1.50;;;7.30;99.90;;;;;;5000250;28;19917;-69
2021/12/19 05:59:47;;;;;;;4.20;1.38;;;7.30;99.90;;;;;;5000186;28;20490;-69
2021/12/19 06:02:12;;;;;;;8.05;1.52;;;7.30;99.90;;;;;;4999883;28;20481;-69
2021/12/19 06:04:38;;;;;;;2.75;1.83;;;7.30;99.90;;;;;;5000412;28;20825;-69
2021/12/19 06:07:04;;;;;;;5.00;2.00;;;7.30;99.90;;;;;;4999898;28;20042;-69
2021/12/19 06:09:29;;;;;;;;;;;7.30;99.90;;;;;;4999754;28;20044;-69
2021/12/19 06:11:55;;;;;;;4.70;2.03;;;7.30;99.90;;;;;;4999417;28;19916;-69
2021/12/19 06:14:20;;;;;;;;;;;7.40;99.90;;;;;;5000129;28;20030;-70
2021/12/19 06:16:46;;;;;;;5.18;2.47;;;7.30;99.90;;;;;;5000235;28;20021;-69
2021/12/19 06:19:11;;;;;;;8.40;2.80;;;7.30;99.90;;;;;;4999900;28;20072;-69
2021/12/19 06:21:37;;;;;;;6.47;2.10;;;7.30;99.90;;;;;;5014010;28;20161;-69
2021/12/19 06:24:02;;;;;;;;;;;7.30;99.90;;;;;;5000089;28;20416;-69
2021/12/19 06:26:28;;;;;;;9.63;2.88;;;7.30;99.90;;;;;;5000172;28;19993;-69
2021/12/19 06:28:53;;;;;;;;;;;7.30;99.90;;;;;;4999110;28;20036;-69
2021/12/19 06:31:19;;;;;;;6.18;3.65;;;7.30;99.90;;;;;;4999655;28;19909;-69
2021/12/19 06:33:44;;;;;;;;;;;7.30;99.90;;;;;;5000687;28;20025;-69
2021/12/19 06:36:10;;;;;;;8.70;3.05;;;7.30;99.90;;;;;;5000025;28;19917;-69
2021/12/19 06:38:35;;;;;;;11.38;3.42;;;7.30;99.90;;;;;;4999111;28;20501;-69
2021/12/19 06:41:01;;;;;;;;;;;7.30;99.90;;;;;;5000754;28;20034;-69
2021/12/19 06:43:30;;;;;;;10.15;4.03;;;7.30;99.90;;;;;;4999491;28;19909;-69
2021/12/19 06:45:56;;;;;;;9.85;4.20;;;7.30;99.90;;;;;;4999406;28;20034;-69
2021/12/19 06:48:24;;;;;;;;;;;7.30;99.90;;;;;;4999908;28;20030;-69
2021/12/19 06:50:50;;;;;;;12.10;3.75;;;7.30;99.90;;;;;;4999802;28;19918;-69
2021/12/19 06:53:15;;;;;;;;;;;7.30;99.90;;;;;;5000041;28;20038;-69
2021/12/19 06:55:41;;;;;;;8.75;4.25;;;7.30;99.90;;;;;;4999736;28;19963;-69
2021/12/19 06:58:06;;;;;;;9.68;4.50;;;7.30;99.90;;;;;;5000086;28;20022;-69
2021/12/19 07:00:32;;;;;;;;;;;7.30;99.90;;;;;;4999670;28;20046;-69
2021/12/19 07:02:57;;;;;;;11.80;4.63;;;7.30;99.90;;;;;;4999141;28;20015;-69
2021/12/19 07:05:23;;;;;;;11.10;4.22;;;7.30;99.90;;;;;;4999012;28;20038;-69
2021/12/19 07:07:48;;;;;;;;;;;7.30;99.90;;;;;;4999681;28;20037;-69
2021/12/19 07:10:14;;;;;;;8.65;3.88;;;7.30;99.90;;;;;;4997062;28;19921;-69
2021/12/19 07:12:39;;;;;;;14.15;6.30;;;7.40;99.90;;;;;;5014036;28;20101;-69
2021/12/19 07:15:06;;;;;;;13.32;5.85;;;7.40;99.90;;;;;;4999531;28;20430;-69
2021/12/19 07:17:32;;;;;;;13.48;3.85;;;7.40;99.90;;;;;;4998999;28;20029;-69
2021/12/19 07:19:57;;;;;;;;;;;7.40;99.90;;;;;;4999549;28;20396;-69
2021/12/19 07:22:23;;;;;;;10.07;4.65;;;7.40;99.90;;;;;;4999000;28;19917;-69
2021/12/19 07:24:48;;;;;;;;;;;7.40;99.90;;;;;;5000307;28;20038;-69
2021/12/19 07:27:15;;;;;;;14.18;5.00;;;7.40;99.90;;;;;;4999172;28;20004;-69
2021/12/19 07:29:41;;;;;;;11.27;3.97;;;7.40;99.90;;;;;;4998922;28;20029;-69
2021/12/19 07:32:07;;;;;;;8.65;4.20;;;7.30;99.90;;;;;;4999518;28;20068;-69
2021/12/19 07:34:35;;;;;;;;;;;7.30;99.90;;;;;;5002562;28;20535;-69
2021/12/19 07:37:01;;;;;;;7.13;4.35;;;7.30;99.90;;;;;;5003158;28;20376;-69
2021/12/19 07:42:10;;;;;;;12.48;4.53;;;7.30;99.90;;;;;;5003272;28;20422;-69
2021/12/19 07:44:37;;;;;;;16.27;5.13;;;7.40;99.90;;;;;;5001693;28;20058;-69
2021/12/19 07:47:06;;;;;;;9.00;4.53;;;7.40;99.90;;;;;;5002805;28;20034;-69
2021/12/19 07:49:32;;;;;;;12.13;6.78;;;7.40;99.90;;;;;;5003399;28;20033;-69
2021/12/19 07:51:57;;;;;;;;;;;7.40;99.90;;;;;;5003111;28;20038;-69
2021/12/19 07:54:22;;;;;;;9.93;3.53;;;7.40;99.90;;;;;;5002434;28;19909;-69
2021/12/19 07:56:48;;;;;;;;;;;7.40;99.90;;;;;;5003475;28;20034;-69
2021/12/19 07:59:14;;;;;;;8.60;4.32;;;7.40;99.90;;;;;;5003284;28;19909;-69
2021/12/19 08:01:39;;;;;;;;;;;7.40;99.90;;;;;;5001368;28;20581;-69
2021/12/19 08:04:05;;;;;;;10.93;3.10;;;7.40;99.90;;;;;;5001915;28;19914;-69
2021/12/19 08:06:30;;;;;;;;;;;7.40;99.90;;;;;;5003582;28;20045;-69
2021/12/19 08:08:58;;;;;;;12.57;5.72;;;7.40;99.90;;;;;;5002076;28;19909;-64
2021/12/19 08:11:40;;;;;;;9.38;4.28;;;7.70;99.90;;;;;;5002089;28;20493;-64
2021/12/19 08:14:08;;;;;;;11.13;3.88;;;8.60;99.90;;;;;;5002119;28;20041;-64
2021/12/19 08:16:33;;;;;;;6.97;4.10;;;9.20;99.90;;;;;;5002359;28;20030;-68
2021/12/19 08:18:58;;;;;;;;;;;9.50;99.90;;;;;;5000912;28;20022;-69
2021/12/19 08:21:24;;;;;;;11.18;4.82;;;9.00;99.90;;;;;;5001296;28;19917;-70
2021/12/19 08:23:50;;;;;;;;;;;8.60;99.90;;;;;;5002491;28;20022;-68
2021/12/19 08:26:15;;;;;;;7.78;3.85;;;8.20;99.90;;;;;;5002391;28;19909;-69
2021/12/19 08:28:41;;;;;;;12.40;5.25;;;8.00;99.90;;;;;;5002035;28;20959;-69
2021/12/19 08:31:06;;;;;;;;;;;7.80;99.90;;;;;;5018346;28;20121;-69
2021/12/19 08:33:32;;;;;;;12.95;4.80;;;7.70;99.90;;;;;;5002064;28;19929;-68
2021/12/19 08:35:59;;;;;;;;;;;7.60;99.90;;;;;;5002366;28;20030;-68
2021/12/19 08:38:25;;;;;;;12.38;4.53;;;7.60;99.90;;;;;;5000525;28;19913;-69
2021/12/19 08:40:51;;;;;;;;;;;7.60;99.90;;;;;;5002244;28;20050;-70
2021/12/19 08:43:18;;;;;;;8.23;3.83;;;7.50;99.90;;;;;;5002319;28;19965;-69
2021/12/19 08:45:44;;;;;;;7.95;3.30;;;7.50;99.90;;;;;;5018004;28;20685;-69
2021/12/19 08:48:09;;;;;;;;;;;7.50;99.90;;;;;;5002619;28;20105;-70
2021/12/19 08:50:35;;;;;;;11.13;3.47;;;7.50;99.90;;;;;;5001955;28;19918;-70
2021/12/19 08:53:01;;;;;;;;;;;7.50;99.90;;;;;;5000890;28;20405;-69
2021/12/19 08:55:26;;;;;;;3.38;1.90;;;7.50;99.90;;;;;;5002516;28;19910;-69
2021/12/19 08:57:52;;;;;;;;;;;7.50;99.90;;;;;;5001528;28;20043;-69
2021/12/19 09:00:19;;;;;;;4.07;1.17;;;7.40;99.90;;;;;;5002952;28;19916;-69
2021/12/19 09:02:49;;;;;;;6.90;1.58;;;7.40;99.90;;;;;;5001728;28;20485;-69
2021/12/19 09:05:15;;;;;;;3.70;1.10;;;7.40;99.90;;;;;;5003813;28;20396;-69
2021/12/19 09:07:43;;;;;;;6.03;2.03;;;7.40;99.90;;;;;;5001355;28;20042;-68
2021/12/19 09:10:12;;;;;;;8.50;1.98;;;7.40;99.90;;;;;;5000688;28;20072;-69
2021/12/19 09:12:38;;;;;;;4.53;2.55;;;7.40;99.90;;;;;;5000140;28;20062;-69
2021/12/19 09:15:04;;;;;;;;;;;7.40;99.90;;;;;;5001759;28;20065;-69
2021/12/19 09:17:30;;;;;;;8.43;1.63;;;7.40;99.90;;;;;;5000090;28;19909;-69
2021/12/19 09:19:55;;;;;;;;;;;7.40;99.90;;;;;;5002534;28;20030;-69
2021/12/19 09:22:21;;;;;;;11.40;3.03;;;7.40;99.90;;;;;;5002449;28;20360;-69
2021/12/19 09:24:46;;;;;;;;;;;7.40;99.90;;;;;;5003641;28;20091;-69
2021/12/19 09:27:12;;;;;;;5.65;2.40;;;7.40;99.90;;;;;;5002984;28;19917;-69
2021/12/19 09:29:37;;;;;;;6.90;1.67;;;7.40;99.90;;;;;;5001597;28;20128;-69
2021/12/19 09:32:03;;;;;;;6.78;2.38;;;7.40;99.90;;;;;;5002741;28;20026;-69
2021/12/19 09:34:31;;;;;;;;;;;7.40;99.90;;;;;;5002075;28;20030;-69
2021/12/19 09:36:57;;;;;;;3.80;1.45;;;7.40;99.90;;;;;;4999879;28;19948;-69
2021/12/19 09:39:23;;;;;;;;;;;7.40;99.90;;;;;;5002743;28;20068;-69
2021/12/19 09:41:54;;;;;;;9.13;2.28;;;7.40;99.90;;;;;;5001323;28;19909;-69
2021/12/19 09:44:21;;;;;;;9.30;4.10;;;7.40;99.90;;;;;;5001283;28;20112;-66
2021/12/19 09:46:47;;;;;;;4.75;2.97;;;7.50;99.90;;;;;;5000183;28;20049;-66
2021/12/19 09:49:13;;;;;;;;;;;8.20;99.90;;;;;;5001325;28;20034;-70
2021/12/19 09:51:39;;;;;;;5.05;1.00;;;8.80;99.90;;;;;;5000538;28;20703;-70
2021/12/19 09:54:08;;;;;;;5.07;1.10;;;8.60;99.90;;;;;;5000813;28;20084;-70
2021/12/19 09:56:35;;;;;;;5.65;1.30;;;8.20;99.90;;;;;;5000451;28;20050;-70
2021/12/19 09:59:11;;;;;;;;;;;8.00;99.90;;;;;;5000705;28;20041;-71
2021/12/19 10:01:38;;;;;;;3.13;1.83;;;7.80;99.90;;;;;;5000701;28;19967;-71
2021/12/19 10:04:04;;;;;;;2.42;1.52;;;7.60;99.90;;;;;;4999583;28;20033;-71
2021/12/19 10:06:33;;;;;;;3.10;1.50;;;7.50;99.90;;;;;;5000172;28;20541;-71
2021/12/19 10:09:18;;;;;;;8.98;1.55;;;7.50;99.90;;;;;;5000926;28;20030;-71
2021/12/19 10:12:10;;;;;;;5.45;1.00;;;7.40;99.90;;;;;;5000368;28;20030;-71
2021/12/19 10:14:37;;;;;;;4.22;1.40;;;7.40;99.90;;;;;;4999888;28;20481;-69
2021/12/19 10:17:07;;;;;;;6.65;2.15;;;7.40;99.90;;;;;;4999151;28;20506;-69
2021/12/19 10:19:44;;;;;;;6.10;1.13;;;7.40;99.90;;;;;;4999153;28;20474;-70
2021/12/19 10:22:33;;;;;;;2.80;1.20;;;7.40;99.90;;;;;;5015464;28;20485;-69
2021/12/19 10:25:13;;;;;;;3.38;1.52;;;7.30;99.90;;;;;;4999585;28;20436;-68
2021/12/19 10:27:42;;;;;;;4.45;1.60;;;7.30;99.90;;;;;;5000034;28;20108;-70
2021/12/19 10:30:13;;;;;;;3.85;1.05;;;7.30;99.90;;;;;;5005406;28;20028;-70
2021/12/19 10:33:06;;;;;;;3.95;1.00;;;7.30;99.90;;;;;;5001372;28;20026;-69
2021/12/19 10:35:39;;;;;;;10.93;1.83;;;7.30;99.90;;;;;;5000472;28;20025;-69
2021/12/19 10:38:11;;;;;;;5.43;1.80;;;7.40;99.90;;;;;;4999406;28;20049;-69
2021/12/19 10:40:37;;;;;;;7.13;3.92;;;7.40;99.90;;;;;;4998777;28;20088;-70
2021/12/19 10:43:04;;;;;;;;;;;7.40;99.90;;;;;;5000371;28;20413;-69
2021/12/19 10:45:51;;;;;;;2.70;1.00;;;7.30;99.90;;;;;;5000594;28;19921;-69
2021/12/19 10:48:29;;;;;;;2.20;1.10;;;7.30;99.90;;;;;;4999328;28;20117;-69
2021/12/19 10:51:11;;;;;;;3.85;1.15;;;7.30;99.90;;;;;;4997952;28;20069;-69
2021/12/19 10:53:38;;;;;;;4.32;1.40;;;7.30;99.90;;;;;;4999335;28;20033;-68
2021/12/19 10:56:11;;;;;;;3.00;0.95;;;7.40;99.90;;;;;;4999661;28;20571;-69
2021/12/19 10:58:43;;;;;;;2.58;0.90;;;7.40;99.90;;;;;;4999973;28;20030;-70
2021/12/19 11:01:41;;;;;;;1.85;0.88;;;7.50;99.90;;;;;;4999671;28;20022;-68
2021/12/19 11:04:08;;;;;;;3.53;1.00;;;7.50;99.90;;;;;;4992962;28;20038;-69
2021/12/19 11:06:38;;;;;;;4.18;1.30;;;7.50;99.90;;;;;;4998937;28;20041;-70
2021/12/19 11:09:07;;;;;;;2.53;0.90;;;7.50;99.90;;;;;;5008304;28;20029;-70
2021/12/19 11:11:49;;;;;;;3.88;1.25;;;7.40;99.90;;;;;;5003664;28;20056;-70
2021/12/19 11:14:38;;;;;;;3.10;1.02;;;7.50;99.90;;;;;;5004953;28;20018;-72
2021/12/19 11:17:14;;;;;;;2.40;1.42;;;7.50;99.90;;;;;;5003392;28;20022;-70
2021/12/19 11:19:42;;;;;;;6.32;1.02;;;7.50;99.90;;;;;;5003178;28;20026;-70
2021/12/19 11:22:10;;;;;;;1.67;1.08;;;7.40;99.90;;;;;;5003439;28;20079;-70
2021/12/19 11:24:35;;;;;;;2.50;0.93;;;7.30;99.90;;;;;;5002797;28;20038;-71
2021/12/19 11:27:03;;;;;;;;;;;7.30;99.90;;;;;;5003245;28;20042;-70
2021/12/19 11:29:30;;;;;;;2.20;0.77;;;7.30;99.90;;;;;;5003324;28;19970;-70
2021/12/19 11:31:59;;;;;;;3.78;1.20;;;7.40;99.90;;;;;;5002816;28;20485;-69
2021/12/19 11:34:50;;;;;;;3.08;1.20;;;7.40;99.90;;;;;;5003067;28;20025;-68
2021/12/19 11:37:23;;;;;;;3.85;1.67;;;7.40;99.90;;;;;;5001521;28;20033;-68
2021/12/19 11:39:52;;;;;;;4.38;1.40;;;7.40;99.90;;;;;;5003176;28;20026;-68
2021/12/19 11:42:32;;;;;;;5.78;1.20;;;7.40;99.90;;;;;;5003184;28;20025;-68
2021/12/19 11:47:57;;;;;;;3.13;1.02;;;7.30;99.90;;;;;;5001791;28;20623;-67
2021/12/19 11:50:27;;;;;;;3.25;0.82;;;7.30;99.90;;;;;;5000382;28;20126;-68
2021/12/19 11:53:03;;;;;;;1.83;0.70;;;7.30;99.90;;;;;;5002266;28;20036;-67
2021/12/19 11:55:33;;;;;;;6.80;1.13;;;7.30;99.90;;;;;;5002701;28;20021;-69
2021/12/19 11:58:08;;;;;;;6.47;0.70;;;7.30;99.90;;;;;;5001535;28;20529;-69
2021/12/19 12:00:43;;;;;;;4.90;1.25;;;7.30;99.90;;;;;;5001889;28;20750;-68
2021/12/19 12:03:14;;;;;;;5.50;1.20;;;7.40;99.90;;;;;;5002899;28;20026;-68
2021/12/19 12:05:47;;;;;;;5.15;1.05;;;7.40;99.90;;;;;;5002697;28;20026;-68
2021/12/19 12:08:19;;;;;;;3.55;1.13;;;7.40;99.90;;;;;;5017124;28;21633;-69
2021/12/19 12:10:48;;;;;;;6.30;1.67;;;7.40;99.90;;;;;;5002803;28;20038;-69
2021/12/19 12:13:24;;;;;;;6.68;1.02;;;7.40;99.90;;;;;;5001785;28;20098;-69
2021/12/19 12:15:57;;;;;;;3.63;0.90;;;7.40;99.90;;;;;;5003319;28;20068;-68
2021/12/19 12:18:31;;;;;;;6.20;0.98;;;7.50;99.90;;;;;;5003145;28;20025;-68
2021/12/19 12:20:57;;;;;;;2.83;0.65;;;7.50;99.90;;;;;;5001934;28;20516;-68
2021/12/19 12:23:26;;;;;;;3.17;1.48;;;7.50;99.90;;;;;;5003549;28;20038;-68
2021/12/19 12:25:52;;;;;;;3.67;0.70;;;7.50;99.90;;;;;;5003404;28;20018;-68
2021/12/19 12:28:18;;;;;;;;;;;7.50;99.90;;;;;;5002023;28;20033;-68
2021/12/19 12:30:51;;;;;;;4.93;1.08;;;7.50;99.90;;;;;;5001548;28;20381;-68
2021/12/19 12:33:20;;;;;;;21.10;5.72;;;7.40;99.90;;;;;;5016251;28;20089;-68
2021/12/19 12:35:50;;;;;;;4.88;1.13;;;7.60;99.90;;;;;;5017468;28;20726;-67
2021/12/19 12:38:17;;;;;;;2.58;1.15;;;7.70;99.90;;;;;;5001721;28;20038;-70
2021/12/19 12:41:00;;;;;;;3.90;0.93;;;7.60;99.90;;;;;;5001624;28;20026;-68
2021/12/19 12:43:32;;;;;;;3.40;1.35;;;7.60;99.90;;;;;;5002807;28;20448;-69
2021/12/19 12:46:14;;;;;;;4.78;1.42;;;7.50;99.90;;;;;;4999114;28;20036;-67
2021/12/19 12:49:16;;;;;;;6.88;2.08;;;7.50;99.90;;;;;;5000941;28;20033;-68
2021/12/19 12:51:45;;;;;;;8.35;1.92;;;7.40;99.90;;;;;;4992700;28;20754;-68
2021/12/19 12:54:25;;;;;;;10.23;1.70;;;7.40;99.90;;;;;;5000066;28;20432;-67
2021/12/19 12:56:56;;;;;;;8.70;1.88;;;7.40;99.90;;;;;;5000936;28;20025;-67
2021/12/19 12:59:29;;;;;;;8.93;2.17;;;7.40;99.90;;;;;;5000642;28;20085;-67
2021/12/19 13:04:35;;;;;;;5.15;1.60;;;7.40;99.90;;;;;;5000406;28;20046;-67
2021/12/19 13:07:24;;;;;;;4.63;1.40;;;7.40;99.90;;;;;;4999258;28;20512;-67
2021/12/19 13:10:00;;;;;;;7.50;1.10;;;7.40;99.90;;;;;;5000942;28;20172;-67
2021/12/19 13:12:29;;;;;;;11.15;1.95;;;7.40;99.90;;;;;;5000475;28;20087;-67
2021/12/19 13:14:56;;;;;;;5.57;1.52;;;7.40;99.90;;;;;;4998751;28;20018;-67
2021/12/19 13:17:25;;;;;;;11.73;2.15;;;7.40;99.90;;;;;;5000554;28;20584;-67
2021/12/19 13:19:59;;;;;;;9.98;2.38;;;7.30;99.90;;;;;;5001806;28;20034;-67
2021/12/19 13:22:52;;;;;;;8.30;1.75;;;7.30;99.90;;;;;;5001754;28;20049;-67
2021/12/19 13:25:19;;;;;;;6.43;1.25;;;7.30;99.90;;;;;;4998974;28;20038;-68
2021/12/19 13:27:56;;;;;;;11.40;2.05;;;7.40;99.90;;;;;;5001100;28;20034;-67
2021/12/19 13:30:24;;;;;;;6.88;1.38;;;7.40;99.90;;;;;;5000850;28;20060;-67
2021/12/19 13:32:56;;;;;;;9.15;1.70;;;7.40;99.90;;;;;;5001400;28;20503;-68
2021/12/19 13:35:43;;;;;;;6.45;2.35;;;7.30;99.90;;;;;;5000849;28;20473;-67
2021/12/19 13:38:23;;;;;;;22.55;3.28;;;7.40;99.90;;;;;;5001212;28;20122;-68
2021/12/19 13:41:17;;;;;;;9.50;1.75;;;7.40;99.90;;;;;;5000321;28;20031;-67
2021/12/19 13:43:43;;;;;;;9.18;1.83;;;7.40;99.90;;;;;;4989532;28;20049;-67
2021/12/19 13:46:10;;;;;;;;;;;7.40;99.90;;;;;;5002320;28;20050;-67
2021/12/19 13:48:45;;;;;;;10.13;1.85;;;7.40;99.90;;;;;;5001125;28;19916;-67
2021/12/19 13:51:17;;;;;;;8.93;1.90;;;7.40;99.90;;;;;;5001440;28;20489;-67
2021/12/19 13:53:45;;;;;;;11.68;2.45;;;7.40;99.90;;;;;;5001607;28;20096;-67
2021/12/19 13:56:20;;;;;;;8.40;2.05;;;7.40;99.90;;;;;;5015847;28;20394;-67
2021/12/19 13:58:49;;;;;;;3.50;1.50;;;7.40;99.90;;;;;;5000177;28;20259;-68
2021/12/19 14:01:18;;;;;;;5.75;1.45;;;7.40;99.90;;;;;;5000607;28;20060;-67
2021/12/19 14:04:21;;;;;;;4.25;2.08;;;7.40;99.90;;;;;;5000531;28;20112;-67
2021/12/19 14:06:49;;;;;;;7.90;1.67;;;7.40;99.90;;;;;;4996140;28;20046;-67
2021/12/19 14:09:19;;;;;;;7.63;1.75;;;7.40;99.90;;;;;;5000556;28;20026;-67
2021/12/19 14:11:55;;;;;;;6.00;1.52;;;7.40;99.90;;;;;;5016391;28;20408;-67
2021/12/19 14:14:32;;;;;;;13.13;2.00;;;7.40;99.90;;;;;;5001180;28;20493;-67
2021/12/19 14:17:03;;;;;;;9.48;1.67;;;7.40;99.90;;;;;;4999848;28;20022;-68
2021/12/19 14:19:33;;;;;;;9.32;2.25;;;7.40;99.90;;;;;;5000314;28;20374;-68
2021/12/19 14:22:01;;;;;;;8.70;2.42;;;7.40;99.90;;;;;;4999774;28;20105;-68